Time;durP1;ratioP1;P1;durP2;ratioP2;P2;SDS_P1;SDS_P2;PMS_P1;PMS_P2;Temp;Humidity;BMP_temperature;BMP_pressure;BME280_temperature;BME280_humidity;BME280_pressure;Samples;Min_cycle;Max_cycle;Signal;HPM_P1;HPM_P2
2023/08/14 00:00:27;;;;;;;20.65;10.15;;;;;;;29.28;nan;97456.84;4988284;28;20057;-63
2023/08/14 00:02:57;;;;;;;26.77;10.65;;;;;;;29.21;nan;97455.84;4976282;28;20070;-64
2023/08/14 00:05:26;;;;;;;21.45;9.20;;;;;;;29.17;nan;97463.88;4993155;28;20041;-64
2023/08/14 00:07:55;;;;;;;20.63;10.27;;;;;;;29.16;nan;97466.97;4996722;28;20053;-63
2023/08/14 00:10:26;;;;;;;25.90;10.30;;;;;;;29.12;nan;97460.63;4974442;28;20065;-63
2023/08/14 00:12:55;;;;;;;30.25;10.00;;;;;;;29.09;nan;97461.28;4997284;28;20054;-63
2023/08/14 00:15:24;;;;;;;21.02;11.18;;;;;;;29.06;nan;97473.69;4994306;28;20497;-63
2023/08/14 00:17:54;;;;;;;22.67;9.90;;;;;;;29.02;nan;97479.03;4994893;28;20050;-64
2023/08/14 00:20:23;;;;;;;21.40;9.98;;;;;;;29.02;nan;97486.41;4994990;28;20053;-63
2023/08/14 00:22:52;;;;;;;21.40;11.27;;;;;;;28.99;nan;97487.09;4991985;28;20042;-63
2023/08/14 00:25:22;;;;;;;26.33;10.18;;;;;;;29.00;nan;97486.75;4994803;28;20042;-63
2023/08/14 00:27:51;;;;;;;26.80;11.80;;;;;;;29.00;nan;97488.69;4998943;28;20051;-63
2023/08/14 00:30:21;;;;;;;23.30;10.88;;;;;;;28.97;nan;97495.63;4976182;28;20119;-64
2023/08/14 00:32:50;;;;;;;26.92;10.93;;;;;;;28.96;nan;97504.94;4974172;28;20695;-63
2023/08/14 00:35:20;;;;;;;29.35;11.52;;;;;;;28.97;nan;97513.91;4976394;28;20057;-63
2023/08/14 00:37:50;;;;;;;24.27;9.77;;;;;;;28.96;nan;97509.59;4978806;28;20050;-63
2023/08/14 00:40:19;;;;;;;21.83;9.95;;;;;;;28.97;nan;97516.63;4968898;28;20058;-63
2023/08/14 00:42:48;;;;;;;18.63;9.50;;;;;;;28.92;nan;97505.97;4977505;28;20380;-64
2023/08/14 00:45:18;;;;;;;21.98;10.15;;;;;;;28.92;nan;97508.69;4975170;28;20855;-63
2023/08/14 00:47:49;;;;;;;21.83;9.40;;;;;;;28.92;nan;97514.13;4996691;28;20073;-63
2023/08/14 00:50:19;;;;;;;22.45;9.48;;;;;;;28.90;nan;97519.16;4978062;28;20061;-63
2023/08/14 00:52:54;;;;;;;26.10;9.43;;;;;;;28.91;nan;97520.72;4979560;28;20152;-63
2023/08/14 00:55:28;;;;;;;23.60;9.50;;;;;;;28.90;nan;97521.88;4967792;28;20053;-63
2023/08/14 00:57:58;;;;;;;23.23;10.73;;;;;;;28.90;nan;97516.41;4976869;28;20138;-63
2023/08/14 01:00:28;;;;;;;20.88;8.80;;;;;;;28.88;nan;97524.13;4977500;28;20065;-64
2023/08/14 01:02:58;;;;;;;26.15;10.05;;;;;;;28.89;nan;97533.91;4972595;28;20800;-63
2023/08/14 01:05:27;;;;;;;25.33;10.13;;;;;;;28.87;nan;97534.22;4972699;28;20057;-64
2023/08/14 01:07:57;;;;;;;24.33;9.95;;;;;;;28.92;nan;97535.94;4980682;28;20524;-63
2023/08/14 01:10:44;;;;;;;23.77;10.35;;;;;;;28.89;nan;97544.81;5003200;28;20052;-65
2023/08/14 01:13:23;;;;;;;20.90;9.35;;;;;;;28.89;nan;97542.88;4982656;28;20054;-63
2023/08/14 01:15:57;;;;;;;20.60;9.82;;;;;;;28.84;nan;97545.81;4983864;28;20050;-64
2023/08/14 01:18:31;;;;;;;24.52;9.32;;;;;;;28.90;nan;97560.03;4982818;28;20058;-63
2023/08/14 01:21:24;;;;;;;23.02;10.32;;;;;;;28.90;nan;97562.75;4973050;28;20124;-63
2023/08/14 01:24:07;;;;;;;22.40;9.88;;;;;;;28.94;nan;97550.81;4999577;28;20571;-63
2023/08/14 01:26:38;;;;;;;24.90;10.02;;;;;;;28.96;nan;97558.66;4982753;28;20054;-63
2023/08/14 01:29:07;;;;;;;24.00;9.50;;;;;;;28.97;nan;97558.34;4970215;28;20050;-64
2023/08/14 01:31:37;;;;;;;22.67;9.45;;;;;;;28.96;nan;97559.47;4999757;28;20048;-64
2023/08/14 01:34:07;;;;;;;18.77;9.35;;;;;;;28.97;nan;97566.50;4981576;28;20060;-63
2023/08/14 01:36:50;;;;;;;24.27;9.98;;;;;;;29.02;nan;97560.03;4983821;28;20056;-64
2023/08/14 01:39:24;;;;;;;24.63;10.68;;;;;;;29.04;nan;97565.94;4975666;28;20061;-64
2023/08/14 01:42:11;;;;;;;29.55;10.48;;;;;;;28.99;nan;97566.16;4998221;28;20132;-64
2023/08/14 01:44:44;;;;;;;28.67;10.45;;;;;;;29.12;nan;97567.75;4972736;28;20669;-64
2023/08/14 01:47:16;;;;;;;;;;;;;;;29.19;nan;97568.00;5003288;28;20062;-64
2023/08/14 01:49:46;;;;;;;28.02;11.77;;;;;;;29.24;nan;97572.44;4961180;28;19925;-64
2023/08/14 01:52:16;;;;;;;19.48;10.18;;;;;;;29.27;nan;97577.97;4982539;28;20472;-62
2023/08/14 01:54:48;;;;;;;19.58;10.32;;;;;;;29.37;nan;97579.50;4979308;28;20580;-64
2023/08/14 01:57:17;;;;;;;25.02;10.20;;;;;;;29.41;nan;97586.66;4975451;28;20385;-64
2023/08/14 01:59:48;;;;;;;25.83;9.25;;;;;;;29.40;nan;97595.97;4972252;28;20184;-64
2023/08/14 02:02:19;;;;;;;21.63;9.30;;;;;;;29.50;nan;97596.66;4993562;28;20050;-64
2023/08/14 02:04:49;;;;;;;21.10;8.85;;;;;;;29.61;nan;97603.25;4973137;28;20284;-64
2023/08/14 02:07:22;;;;;;;20.00;9.65;;;;;;;29.60;nan;97610.63;4973189;28;20132;-64
2023/08/14 02:09:54;;;;;;;26.67;9.82;;;;;;;29.68;nan;97606.19;4971263;28;20052;-64
2023/08/14 02:12:24;;;;;;;22.88;8.93;;;;;;;29.78;nan;97611.19;4968997;28;20466;-64
2023/08/14 02:14:53;;;;;;;25.17;9.50;;;;;;;29.82;nan;97612.06;4986470;28;20480;-64
2023/08/14 02:17:22;;;;;;;23.70;9.25;;;;;;;29.90;nan;97627.56;4981834;28;20060;-64
2023/08/14 02:19:52;;;;;;;22.42;10.05;;;;;;;29.94;nan;97619.47;4979237;28;20068;-64
2023/08/14 02:22:21;;;;;;;24.75;9.60;;;;;;;29.97;nan;97618.75;4990412;28;20038;-64
2023/08/14 02:24:50;;;;;;;22.67;9.95;;;;;;;30.30;nan;97617.44;4981028;28;20145;-65
2023/08/14 02:27:20;;;;;;;25.58;8.60;;;;;;;30.64;nan;97615.25;4976160;28;20038;-65
2023/08/14 02:29:49;;;;;;;18.58;8.73;;;;;;;30.93;nan;97623.06;4977626;28;20050;-65
2023/08/14 02:32:18;;;;;;;17.25;8.52;;;;;;;31.16;nan;97635.00;4983424;28;20046;-64
2023/08/14 02:34:56;;;;;;;19.90;8.93;;;;;;;31.16;nan;97642.41;4973738;28;20101;-65
2023/08/14 02:37:25;;;;;;;19.88;8.30;;;;;;;31.37;nan;97637.50;4972355;28;20043;-64
2023/08/14 02:39:54;;;;;;;18.35;7.93;;;;;;;31.21;nan;97655.84;4979886;28;20478;-64
2023/08/14 02:42:23;;;;;;;22.80;9.68;;;;;;;31.07;nan;97650.78;4981384;28;20815;-65
2023/08/14 02:44:53;;;;;;;23.08;8.75;;;;;;;31.01;nan;97656.88;4981859;28;20785;-64
2023/08/14 02:47:24;;;;;;;19.67;9.15;;;;;;;31.15;nan;97663.53;4980230;28;20046;-65
2023/08/14 02:49:54;;;;;;;36.13;9.13;;;;;;;31.26;nan;97662.97;4993832;28;20160;-64
2023/08/14 02:52:23;;;;;;;22.73;9.95;;;;;;;31.15;nan;97655.31;4973531;28;20042;-65
2023/08/14 02:54:52;;;;;;;23.17;8.60;;;;;;;31.07;nan;97659.00;4997708;28;20042;-64
2023/08/14 02:57:22;;;;;;;18.52;8.23;;;;;;;31.14;nan;97678.34;4978653;28;20058;-65
2023/08/14 02:59:51;;;;;;;20.05;8.60;;;;;;;31.22;nan;97676.56;4981285;28;20119;-64
2023/08/14 03:02:20;;;;;;;27.90;9.13;;;;;;;31.25;nan;97686.03;4995275;28;20042;-65
2023/08/14 03:04:50;;;;;;;18.52;8.23;;;;;;;31.25;nan;97686.03;4988201;28;20080;-65
2023/08/14 03:07:19;;;;;;;22.70;8.60;;;;;;;31.33;nan;97696.00;4974746;28;20164;-64
2023/08/14 03:09:48;;;;;;;27.42;9.00;;;;;;;31.34;nan;97694.84;4976683;28;20050;-64
2023/08/14 03:12:18;;;;;;;21.42;8.32;;;;;;;31.24;nan;97706.34;4969591;28;20046;-65
2023/08/14 03:14:48;;;;;;;18.00;8.20;;;;;;;31.26;nan;97707.56;4970549;28;20049;-65
2023/08/14 03:17:18;;;;;;;17.60;8.75;;;;;;;31.26;nan;97714.97;4975950;28;20046;-65
2023/08/14 03:19:47;;;;;;;21.33;8.20;;;;;;;31.30;nan;97716.66;4978167;28;20053;-65
2023/08/14 03:22:17;;;;;;;24.80;8.88;;;;;;;31.45;nan;97721.34;4962065;28;20050;-66
2023/08/14 03:24:46;;;;;;;18.55;8.65;;;;;;;31.17;nan;97720.63;4979029;28;20042;-65
2023/08/14 03:27:16;;;;;;;19.25;8.45;;;;;;;31.25;nan;97727.84;4987459;28;20140;-64
2023/08/14 03:29:47;;;;;;;22.55;8.48;;;;;;;31.41;nan;97728.69;4978905;28;21000;-65
2023/08/14 03:32:17;;;;;;;24.10;8.20;;;;;;;31.50;nan;97733.97;4958180;28;20050;-65
2023/08/14 03:34:46;;;;;;;22.65;8.35;;;;;;;31.47;nan;97732.72;4975551;28;20086;-65
2023/08/14 03:37:15;;;;;;;24.88;8.07;;;;;;;31.43;nan;97733.78;4973367;28;20042;-65
2023/08/14 03:39:46;;;;;;;24.05;7.07;;;;;;;31.48;nan;97733.53;4977015;28;20050;-65
2023/08/14 03:42:16;;;;;;;27.10;8.13;;;;;;;31.56;nan;97732.59;4993618;28;20125;-65
2023/08/14 03:44:45;;;;;;;18.67;6.90;;;;;;;31.70;nan;97732.94;4974201;28;20505;-65
2023/08/14 03:47:16;;;;;;;20.52;6.90;;;;;;;31.80;nan;97729.69;4977644;28;20508;-65
2023/08/14 03:49:45;;;;;;;20.85;7.43;;;;;;;31.79;nan;97739.03;4978035;28;20118;-65
2023/08/14 03:52:14;;;;;;;17.90;7.18;;;;;;;31.97;nan;97731.25;4978017;28;20133;-65
2023/08/14 03:54:44;;;;;;;22.80;7.03;;;;;;;32.15;nan;97727.00;4980284;28;20050;-64
2023/08/14 03:57:13;;;;;;;23.08;7.10;;;;;;;31.98;nan;97739.13;4975874;28;20560;-65
2023/08/14 03:59:42;;;;;;;24.80;8.27;;;;;;;32.00;nan;97738.72;4976557;28;20112;-65
2023/08/14 04:02:12;;;;;;;22.02;8.27;;;;;;;32.14;nan;97735.56;4995179;28;20034;-65
2023/08/14 04:04:42;;;;;;;17.70;6.72;;;;;;;32.14;nan;97741.84;4975950;28;20060;-66
2023/08/14 04:07:13;;;;;;;21.88;7.45;;;;;;;32.11;nan;97745.31;4992610;28;20038;-65
2023/08/14 04:09:42;;;;;;;20.05;6.95;;;;;;;32.18;nan;97733.69;4992089;28;20091;-65
2023/08/14 04:12:12;;;;;;;21.20;6.82;;;;;;;32.40;nan;97743.97;4989788;28;20716;-65
2023/08/14 04:14:41;;;;;;;18.38;7.68;;;;;;;32.39;nan;97754.19;4962554;28;20161;-65
2023/08/14 04:17:11;;;;;;;23.58;7.20;;;;;;;32.43;nan;97755.03;4961575;28;20073;-65
2023/08/14 04:19:40;;;;;;;21.67;7.20;;;;;;;32.53;nan;97764.63;4978572;28;20046;-65
2023/08/14 04:22:09;;;;;;;21.50;7.43;;;;;;;32.41;nan;97757.34;4978426;28;20042;-65
2023/08/14 04:24:39;;;;;;;20.00;6.63;;;;;;;32.51;nan;97765.00;4973964;28;20057;-65
2023/08/14 04:27:08;;;;;;;22.48;7.10;;;;;;;32.54;nan;97755.25;4974372;28;20073;-65
2023/08/14 04:29:37;;;;;;;18.48;7.35;;;;;;;32.66;nan;97763.41;4974866;28;20046;-65
2023/08/14 04:32:06;;;;;;;21.33;7.53;;;;;;;32.67;nan;97764.16;4978997;28;20072;-65
2023/08/14 04:34:36;;;;;;;18.92;7.53;;;;;;;32.76;nan;97772.97;4968975;28;20126;-65
2023/08/14 04:37:06;;;;;;;21.25;6.60;;;;;;;32.83;nan;97768.47;4976409;28;20054;-64
2023/08/14 04:39:36;;;;;;;26.13;7.88;;;;;;;32.84;nan;97772.75;4962427;28;20713;-66
2023/08/14 04:42:05;;;;;;;30.35;7.70;;;;;;;32.99;nan;97768.38;4982070;28;20100;-71
2023/08/14 04:44:35;;;;;;;22.58;7.88;;;;;;;33.21;nan;97783.31;4970179;28;20068;-67
2023/08/14 04:47:04;;;;;;;20.55;8.32;;;;;;;33.30;nan;97786.63;4978383;28;20057;-68
2023/08/14 04:49:34;;;;;;;19.75;7.80;;;;;;;33.55;nan;97782.38;4981963;28;20046;-68
2023/08/14 04:52:03;;;;;;;24.38;7.65;;;;;;;33.93;nan;97797.19;4977900;28;20042;-68
2023/08/14 04:54:34;;;;;;;16.77;7.32;;;;;;;33.67;nan;97795.19;4980103;28;20039;-68
2023/08/14 04:57:05;;;;;;;25.05;7.05;;;;;;;33.42;nan;97802.94;4979107;28;20061;-68
2023/08/14 04:59:34;;;;;;;21.63;7.22;;;;;;;33.59;nan;97794.22;4980240;28;20083;-68
2023/08/14 05:02:04;;;;;;;18.35;7.10;;;;;;;33.27;nan;97796.41;4978943;28;20046;-68
2023/08/14 05:04:33;;;;;;;21.10;7.28;;;;;;;33.38;nan;97791.09;4976317;28;20145;-68
2023/08/14 05:07:03;;;;;;;14.45;6.72;;;;;;;33.51;nan;97792.50;4961699;28;20038;-68
2023/08/14 05:09:32;;;;;;;20.17;7.22;;;;;;;33.70;nan;97792.50;4979433;28;20514;-69
2023/08/14 05:12:02;;;;;;;20.02;7.18;;;;;;;33.54;nan;97794.56;4977268;28;20082;-68
2023/08/14 05:14:31;;;;;;;24.70;7.50;;;;;;;33.62;nan;97785.28;4987453;28;20050;-68
2023/08/14 05:17:01;;;;;;;20.63;7.65;;;;;;;33.89;nan;97790.84;4981896;28;20108;-68
2023/08/14 05:19:30;;;;;;;27.45;8.32;;;;;;;34.06;nan;97779.34;4978295;28;20043;-68
2023/08/14 05:21:59;;;;;;;23.83;8.45;;;;;;;33.87;nan;97793.97;4972591;28;20046;-68
2023/08/14 05:24:29;;;;;;;22.52;8.25;;;;;;;33.89;nan;97791.66;4972959;28;20054;-70
2023/08/14 05:26:58;;;;;;;21.08;8.35;;;;;;;33.92;nan;97782.66;4980357;28;20096;-70
2023/08/14 05:29:27;;;;;;;20.67;7.68;;;;;;;34.11;nan;97781.78;4978344;28;20054;-69
2023/08/14 05:31:57;;;;;;;22.65;9.25;;;;;;;34.22;nan;97780.81;4973573;28;20049;-70
2023/08/14 05:34:26;;;;;;;25.42;9.27;;;;;;;34.59;nan;97780.94;4990555;28;20090;-70
2023/08/14 05:36:56;;;;;;;28.55;8.25;;;;;;;34.70;nan;97783.84;4969690;28;20133;-67
2023/08/14 05:39:26;;;;;;;20.05;7.55;;;;;;;35.20;nan;97785.28;4983172;28;20121;-67
2023/08/14 05:41:56;;;;;;;26.40;8.90;;;;;;;34.95;nan;97781.44;4998668;28;20052;-68
2023/08/14 05:44:25;;;;;;;25.50;7.47;;;;;;;34.74;nan;97776.47;4974298;28;20078;-68
2023/08/14 05:46:55;;;;;;;18.77;7.53;;;;;;;34.85;nan;97782.09;4972434;28;20050;-67
2023/08/14 05:49:26;;;;;;;22.83;7.43;;;;;;;34.89;nan;97774.66;4970537;28;20053;-67
2023/08/14 05:51:55;;;;;;;21.50;8.55;;;;;;;35.49;nan;97776.16;4993416;28;20038;-67
2023/08/14 05:54:25;;;;;;;24.33;7.35;;;;;;;35.29;nan;97774.78;4975979;28;20389;-66
2023/08/14 05:56:54;;;;;;;25.20;7.60;;;;;;;35.17;nan;97780.53;4993296;28;20153;-67
2023/08/14 05:59:23;;;;;;;27.38;8.60;;;;;;;35.43;nan;97788.69;4996793;28;20050;-66
2023/08/14 06:01:53;;;;;;;31.67;7.72;;;;;;;35.54;nan;97791.53;4995492;28;20061;-66
2023/08/14 06:04:26;;;;;;;25.15;8.20;;;;;;;35.94;nan;97793.50;4997285;28;20061;-69
2023/08/14 06:06:55;;;;;;;28.50;7.20;;;;;;;35.10;nan;97794.19;4971043;28;20058;-66
2023/08/14 06:09:25;;;;;;;20.52;7.10;;;;;;;35.50;nan;97787.97;4973985;28;20053;-66
2023/08/14 06:11:55;;;;;;;26.75;7.13;;;;;;;35.71;nan;97801.19;4973484;28;20049;-66
2023/08/14 06:14:24;;;;;;;26.13;8.60;;;;;;;34.97;nan;97801.09;4990984;28;20046;-67
2023/08/14 06:16:54;;;;;;;32.40;8.48;;;;;;;35.74;nan;97792.94;4952953;28;20046;-67
2023/08/14 06:19:23;;;;;;;35.08;7.68;;;;;;;35.55;nan;97795.88;4986566;28;20058;-67
2023/08/14 06:21:52;;;;;;;22.50;7.50;;;;;;;35.49;nan;97802.91;4974493;28;20557;-67
2023/08/14 06:24:22;;;;;;;26.25;6.85;;;;;;;35.30;nan;97812.16;4977951;28;20058;-65
2023/08/14 06:26:51;;;;;;;18.10;6.40;;;;;;;35.03;nan;97805.13;4986642;28;20054;-65
2023/08/14 06:29:23;;;;;;;21.42;6.03;;;;;;;35.06;nan;97801.59;4998266;28;20057;-67
2023/08/14 06:31:53;;;;;;;20.30;6.00;;;;;;;35.24;nan;97804.59;4968005;28;20137;-65
2023/08/14 06:34:22;;;;;;;24.02;6.20;;;;;;;35.20;nan;97806.53;4961456;28;20057;-66
2023/08/14 06:36:52;;;;;;;19.75;5.85;;;;;;;34.91;nan;97794.38;4993564;28;20361;-65
2023/08/14 06:39:21;;;;;;;26.38;7.47;;;;;;;35.17;nan;97799.81;4953040;28;20042;-65
2023/08/14 06:41:51;;;;;;;15.75;5.72;;;;;;;35.13;nan;97804.47;4949622;28;20053;-66
2023/08/14 06:44:21;;;;;;;16.33;6.28;;;;;;;35.15;nan;97802.09;4964120;28;20051;-66
2023/08/14 06:46:50;;;;;;;20.85;6.35;;;;;;;35.29;nan;97799.56;4957167;28;20049;-66
2023/08/14 06:49:20;;;;;;;19.73;6.57;;;;;;;34.91;nan;97808.13;4961789;28;20164;-66
2023/08/14 06:51:50;;;;;;;15.98;5.55;;;;;;;34.78;nan;97791.06;4969787;28;20046;-64
2023/08/14 06:54:19;;;;;;;17.58;7.03;;;;;;;34.65;nan;97803.44;4968703;28;20403;-66
2023/08/14 06:56:49;;;;;;;19.52;6.03;;;;;;;34.48;nan;97804.75;4991461;28;20056;-65
2023/08/14 06:59:18;;;;;;;24.38;6.43;;;;;;;34.32;nan;97795.88;4989579;28;20140;-65
2023/08/14 07:01:48;;;;;;;22.73;5.85;;;;;;;34.36;nan;97802.22;4976928;28;20053;-67
2023/08/14 07:04:18;;;;;;;22.30;5.68;;;;;;;34.26;nan;97794.59;4990883;28;20065;-66
2023/08/14 07:06:47;;;;;;;15.32;5.28;;;;;;;34.53;nan;97803.63;4972190;28;20141;-64
2023/08/14 07:09:16;;;;;;;16.27;4.93;;;;;;;34.58;nan;97804.13;4989545;28;20046;-66
2023/08/14 07:11:45;;;;;;;25.80;6.60;;;;;;;34.54;nan;97800.53;4972338;28;20046;-64
2023/08/14 07:14:15;;;;;;;24.25;6.18;;;;;;;34.52;nan;97797.34;4979707;28;20042;-65
2023/08/14 07:16:44;;;;;;;23.10;7.57;;;;;;;34.54;nan;97803.28;4984196;28;20157;-64
2023/08/14 07:19:13;;;;;;;23.92;6.28;;;;;;;34.84;nan;97791.50;4975287;28;20065;-65
2023/08/14 07:21:43;;;;;;;16.13;6.35;;;;;;;34.65;nan;97784.94;4975628;28;20046;-67
2023/08/14 07:24:12;;;;;;;19.00;6.72;;;;;;;34.49;nan;97794.53;4987173;28;20050;-65
2023/08/14 07:26:42;;;;;;;16.67;5.80;;;;;;;34.81;nan;97789.50;4961569;28;20053;-66
2023/08/14 07:29:11;;;;;;;17.42;6.00;;;;;;;34.71;nan;97802.75;4972317;28;20050;-68
2023/08/14 07:31:41;;;;;;;17.65;6.47;;;;;;;34.40;nan;97797.56;4967259;28;20489;-67
2023/08/14 07:34:10;;;;;;;26.00;6.30;;;;;;;34.35;nan;97797.88;4986310;28;20437;-66
2023/08/14 07:36:40;;;;;;;15.70;6.32;;;;;;;34.16;nan;97793.31;4964658;28;20057;-69
2023/08/14 07:39:10;;;;;;;26.15;8.02;;;;;;;33.41;nan;97795.88;4952262;28;20058;-67
2023/08/14 07:41:40;;;;;;;21.13;6.65;;;;;;;33.35;nan;97789.09;4982096;28;20533;-67
2023/08/14 07:44:11;;;;;;;17.05;5.53;;;;;;;33.26;nan;97788.53;4956110;28;20046;-67
2023/08/14 07:46:40;;;;;;;17.10;5.82;;;;;;;33.31;nan;97783.53;4977348;28;20540;-66
2023/08/14 07:49:10;;;;;;;17.42;6.53;;;;;;;33.15;nan;97784.78;4988931;28;20136;-66
2023/08/14 07:51:40;;;;;;;19.48;6.40;;;;;;;33.12;nan;97779.97;4963536;28;20053;-69
2023/08/14 07:54:09;;;;;;;19.05;7.15;;;;;;;32.88;nan;97781.84;4961532;28;20808;-68
2023/08/14 07:56:39;;;;;;;21.80;7.32;;;;;;;32.81;nan;97778.97;4981802;28;20061;-69
2023/08/14 07:59:11;;;;;;;29.52;8.48;;;;;;;33.09;nan;97776.03;4962655;28;20050;-68
2023/08/14 08:01:42;;;;;;;21.40;7.20;;;;;;;33.36;nan;97776.97;4944876;28;20050;-69
2023/08/14 08:04:11;;;;;;;26.48;7.82;;;;;;;33.45;nan;97783.00;4960979;28;20049;-68
2023/08/14 08:06:53;;;;;;;22.15;6.30;;;;;;;33.36;nan;97763.22;4978867;28;20054;-69
2023/08/14 08:09:23;;;;;;;19.45;6.68;;;;;;;33.42;nan;97770.78;4968228;28;20049;-67
2023/08/14 08:11:53;;;;;;;17.98;6.93;;;;;;;33.46;nan;97770.06;4977761;28;20059;-69
2023/08/14 08:14:23;;;;;;;22.85;7.78;;;;;;;33.30;nan;97770.97;4962480;28;20050;-66
2023/08/14 08:16:53;;;;;;;19.77;6.28;;;;;;;33.25;nan;97768.50;4964386;28;20050;-65
2023/08/14 08:19:22;;;;;;;20.80;7.05;;;;;;;33.44;nan;97764.94;4977965;28;20046;-67
2023/08/14 08:21:52;;;;;;;20.35;6.57;;;;;;;33.45;nan;97772.03;4986222;28;20049;-69
2023/08/14 08:24:21;;;;;;;18.65;6.82;;;;;;;33.38;nan;97761.69;4977943;28;20478;-67
2023/08/14 08:26:50;;;;;;;18.13;6.65;;;;;;;33.47;nan;97761.47;4978305;28;20062;-66
2023/08/14 08:29:21;;;;;;;16.52;7.32;;;;;;;33.25;nan;97770.47;4958461;28;20764;-67
2023/08/14 08:31:50;;;;;;;16.05;6.85;;;;;;;33.02;nan;97764.13;4952009;28;20046;-67
2023/08/14 08:34:20;;;;;;;21.08;6.30;;;;;;;33.01;nan;97768.00;4974867;28;20042;-65
2023/08/14 08:36:49;;;;;;;18.67;7.05;;;;;;;33.03;nan;97760.19;4962572;28;20046;-64
2023/08/14 08:39:19;;;;;;;17.77;6.03;;;;;;;33.09;nan;97758.75;4963150;28;20449;-66
2023/08/14 08:41:53;;;;;;;18.60;6.63;;;;;;;33.03;nan;97751.97;4976432;28;20636;-66
2023/08/14 08:44:29;;;;;;;14.98;5.50;;;;;;;33.02;nan;97742.94;4959017;28;20747;-65
2023/08/14 08:47:10;;;;;;;18.90;7.10;;;;;;;33.09;nan;97747.78;4959184;28;20046;-66
2023/08/14 08:49:41;;;;;;;17.38;6.65;;;;;;;33.05;nan;97735.94;4964581;28;20257;-66
2023/08/14 08:52:11;;;;;;;18.73;6.50;;;;;;;33.06;nan;97723.81;4963821;28;20694;-66
2023/08/14 08:54:41;;;;;;;18.20;6.90;;;;;;;33.03;nan;97735.50;4954946;28;20062;-65
2023/08/14 08:57:12;;;;;;;19.90;6.18;;;;;;;33.14;nan;97731.03;4964467;28;21417;-65
2023/08/14 09:11:34;;;;;;;15.63;5.95;;;;;;;33.36;nan;97716.56;5046867;27;20501;-68
2023/08/14 09:14:05;;;;;;;21.33;6.63;;;;;;;33.59;nan;97722.81;5032798;28;20064;-69
2023/08/14 09:16:34;;;;;;;15.10;5.63;;;;;;;33.64;nan;97717.03;5032429;28;20051;-66
2023/08/14 09:19:04;;;;;;;16.83;6.75;;;;;;;33.39;nan;97724.06;5031807;28;20639;-66
2023/08/14 09:21:33;;;;;;;16.27;5.88;;;;;;;33.29;nan;97713.66;5009879;28;20050;-68
2023/08/14 09:24:03;;;;;;;16.73;5.95;;;;;;;33.33;nan;97709.03;5033522;28;20140;-66
2023/08/14 09:26:33;;;;;;;20.23;5.97;;;;;;;33.28;nan;97701.13;5016613;28;20531;-66
2023/08/14 09:29:03;;;;;;;17.90;5.78;;;;;;;33.41;nan;97697.03;5026712;28;20054;-66
2023/08/14 09:31:32;;;;;;;15.60;6.40;;;;;;;33.34;nan;97689.47;5015483;28;20522;-67
2023/08/14 09:34:03;;;;;;;18.48;5.82;;;;;;;33.28;nan;97701.13;5003480;28;20141;-66
2023/08/14 09:36:35;;;;;;;18.63;6.25;;;;;;;33.33;nan;97698.06;5021978;28;20041;-68
2023/08/14 09:39:05;;;;;;;14.18;6.43;;;;;;;33.32;nan;97680.00;5020695;28;20142;-67
2023/08/14 09:41:35;;;;;;;18.33;6.10;;;;;;;33.49;nan;97679.50;5041568;28;20110;-66
2023/08/14 09:44:05;;;;;;;16.52;6.28;;;;;;;33.41;nan;97661.34;5032710;28;20072;-68
2023/08/14 09:46:35;;;;;;;15.65;5.97;;;;;;;33.47;nan;97664.56;5038222;28;20457;-67
2023/08/14 09:49:06;;;;;;;20.58;6.10;;;;;;;33.56;nan;97668.63;5033792;28;20051;-67
2023/08/14 09:51:39;;;;;;;14.93;6.80;;;;;;;33.59;nan;97661.63;5029405;28;20419;-66
2023/08/14 09:54:09;;;;;;;16.85;5.93;;;;;;;33.47;nan;97659.06;5034748;28;20633;-67
2023/08/14 09:56:39;;;;;;;18.05;6.13;;;;;;;33.53;nan;97641.13;5034225;28;20045;-69
2023/08/14 09:59:09;;;;;;;17.67;5.93;;;;;;;33.41;nan;97637.41;5040030;28;20045;-67
2023/08/14 10:01:42;;;;;;;16.48;6.32;;;;;;;33.42;nan;97646.44;5027411;28;20049;-67
2023/08/14 10:04:13;;;;;;;19.10;7.75;;;;;;;33.33;nan;97634.91;5025863;28;20128;-68
2023/08/14 10:06:44;;;;;;;17.65;6.07;;;;;;;33.46;nan;97635.53;5018189;28;20559;-67
2023/08/14 10:09:17;;;;;;;21.52;7.45;;;;;;;33.34;nan;97628.25;5011869;28;20077;-67
2023/08/14 10:11:48;;;;;;;17.58;6.82;;;;;;;33.16;nan;97610.72;5040933;28;20069;-67
2023/08/14 10:14:20;;;;;;;17.73;6.70;;;;;;;33.09;nan;97596.84;5021926;28;20469;-67
2023/08/14 10:16:55;;;;;;;20.23;6.75;;;;;;;33.07;nan;97601.91;5027862;28;20080;-67
2023/08/14 10:19:28;;;;;;;19.92;7.15;;;;;;;33.06;nan;97594.84;4997425;28;20050;-67
2023/08/14 10:21:59;;;;;;;16.17;7.60;;;;;;;33.10;nan;97593.75;5002790;28;20044;-67
2023/08/14 10:24:37;;;;;;;22.10;9.13;;;;;;;32.97;nan;97593.13;4659157;28;10001218;-67
2023/08/14 10:27:11;;;;;;;19.92;7.57;;;;;;;32.85;nan;97593.31;5014070;28;20049;-68
2023/08/14 10:29:45;;;;;;;17.17;9.30;;;;;;;32.85;nan;97590.56;4973070;28;20045;-66
2023/08/14 10:32:15;;;;;;;17.55;9.32;;;;;;;32.78;nan;97582.22;5001327;28;20603;-66
2023/08/14 10:34:46;;;;;;;24.48;10.13;;;;;;;32.78;nan;97590.44;5015778;28;20124;-65
2023/08/14 10:37:27;;;;;;;19.67;10.00;;;;;;;32.79;nan;97583.81;5021236;28;20034;-66
2023/08/14 10:40:18;;;;;;;18.67;8.88;;;;;;;32.88;nan;97592.56;5016167;28;20073;-67
2023/08/14 10:42:53;;;;;;;16.88;8.88;;;;;;;32.93;nan;97592.28;5021200;28;20160;-68
2023/08/14 10:45:25;;;;;;;24.25;9.93;;;;;;;32.85;nan;97592.50;5006170;28;20041;-67
2023/08/14 10:48:09;;;;;;;28.47;9.90;;;;;;;32.87;nan;97587.47;5004646;28;20046;-67
2023/08/14 10:50:39;;;;;;;13.10;8.93;;;;;;;32.93;nan;97595.00;5019824;28;20891;-70
2023/08/14 10:53:11;;;;;;;19.30;9.85;;;;;;;32.78;nan;97584.97;5024946;28;20049;-66
2023/08/14 10:55:47;;;;;;;21.92;9.65;;;;;;;32.78;nan;97590.44;5021342;28;20049;-67
2023/08/14 10:58:29;;;;;;;16.80;8.98;;;;;;;32.77;nan;97588.84;5020059;28;20071;-67
2023/08/14 11:01:02;;;;;;;23.42;10.93;;;;;;;32.72;nan;97580.94;4996214;28;20121;-68
2023/08/14 11:04:04;;;;;;;21.17;9.85;;;;;;;32.63;nan;97579.56;5009567;28;20056;-68
2023/08/14 11:06:58;;;;;;;16.58;10.00;;;;;;;32.63;nan;97583.13;5004917;28;20942;-65
2023/08/14 11:09:47;;;;;;;19.35;10.07;;;;;;;32.58;nan;97590.81;5010536;28;20055;-67
2023/08/14 11:12:17;;;;;;;19.88;10.15;;;;;;;32.56;nan;97591.19;5013320;28;20042;-67
2023/08/14 11:14:47;;;;;;;16.58;10.55;;;;;;;32.39;nan;97584.22;5013666;28;20168;-68
2023/08/14 11:17:17;;;;;;;23.45;11.45;;;;;;;32.50;nan;97596.16;5028263;28;20045;-70
2023/08/14 11:19:47;;;;;;;16.73;11.23;;;;;;;32.52;nan;97612.25;4999243;28;20072;-68
2023/08/14 11:22:17;;;;;;;19.65;11.60;;;;;;;32.44;nan;97616.03;5010930;28;20076;-66
2023/08/14 11:24:47;;;;;;;16.35;10.52;;;;;;;32.47;nan;97635.28;4996578;28;20121;-67
2023/08/14 11:27:18;;;;;;;14.52;10.25;;;;;;;32.38;nan;97626.47;5014995;28;20049;-64
2023/08/14 11:29:51;;;;;;;16.95;10.65;;;;;;;32.27;nan;97633.69;5035208;28;20051;-66
2023/08/14 11:32:25;;;;;;;17.50;11.70;;;;;;;32.47;nan;97648.19;5024057;28;20095;-66
2023/08/14 11:34:54;;;;;;;16.27;10.52;;;;;;;32.51;nan;97649.84;5010143;28;20044;-65
2023/08/14 11:37:24;;;;;;;18.02;10.10;;;;;;;32.39;nan;97650.00;5026781;28;20160;-64
2023/08/14 11:39:54;;;;;;;16.65;10.45;;;;;;;32.34;nan;97649.50;5024677;28;20119;-65
2023/08/14 11:42:23;;;;;;;17.33;10.70;;;;;;;32.41;nan;97652.38;5037072;28;20037;-64
2023/08/14 11:44:53;;;;;;;19.73;11.90;;;;;;;32.39;nan;97663.72;5019744;28;20077;-66
2023/08/14 11:47:23;;;;;;;28.08;11.85;;;;;;;32.37;nan;97668.75;5016673;28;20128;-64
2023/08/14 11:49:54;;;;;;;18.60;11.40;;;;;;;32.44;nan;97671.63;5004365;28;20041;-66
2023/08/14 11:52:26;;;;;;;17.75;12.85;;;;;;;32.39;nan;97666.44;5019315;28;20158;-67
2023/08/14 11:54:57;;;;;;;22.42;11.35;;;;;;;32.30;nan;97679.56;5017471;28;20069;-65
2023/08/14 11:57:32;;;;;;;25.00;11.98;;;;;;;32.30;nan;97671.34;4974475;28;20041;-66
2023/08/14 12:00:10;;;;;;;24.90;11.75;;;;;;;32.23;nan;97673.13;5020883;28;20060;-66
2023/08/14 12:02:40;;;;;;;20.95;11.30;;;;;;;32.22;nan;97674.31;5022442;28;20045;-63
2023/08/14 12:05:11;;;;;;;20.80;11.05;;;;;;;32.21;nan;97680.94;5034477;28;20047;-63
2023/08/14 12:07:43;;;;;;;24.15;12.02;;;;;;;32.09;nan;97677.16;5020199;28;20102;-65
2023/08/14 12:10:16;;;;;;;19.42;11.57;;;;;;;32.01;nan;97688.28;5011720;28;20063;-64